CheckWX is a tool to help pilots better visualize weather data.  It is not intended as a substitute for an official pre-flight weather briefing.

07:29:15 UTC

SBSM TAF
Santa Maria Airport
Santa Maria, Brazil
TAF SBSM 160300Z 1606/1618 11004KT CAVOK TN18/1608Z TX31/1618Z BECMG 1612/1614 01007KT RMK PER

Jun-16@
06:00 UTC

Jun-16 @ 06:00 UTC

Jun-16@
12:00 UTC

Jun-16 @ 12:00 UTC

TAF SBSM 160300Z 1606/1618 11004KT CAVOK TN18/1608Z TX31/1618Z
Wind
  • 110° at 4 KTS
Cloud Levels
  • No significant clouds

Jun-16@
12:00 UTC

Jun-16 @ 12:00 UTC

Jun-16@
18:00 UTC

Jun-16 @ 18:00 UTC

BECMG 1612/1614 01007KT RMK PER

Becoming

Becoming Conditions expected by Sun, Jun 16, 2019 @ 14:00 UTC

Wind
  • 010° at 7 KTS
Cloud Levels
  • No significant clouds